Grande-Riviere, Canada
Current Conditions -  °F | °C
As of 6:00 AM on Saturday 22 Nov 2014 (Local Time) from CYGP Reporting Station
Clear Clear  
Wind Chill: 14°   Ceiling: Unl
Heat Index: 14°   Visibility: 15mi
Dew Point:   Wind: 3mph
Humidity: 73%   Direction: 290°WNW
Pressure: 29.97"   Gusts: NA
Location:  48.38°N, 64.5°W
Report Text: CYGP 221100Z 29003KT 15SM SKC M10/M14 A2997 RMK SLP151
Loading
Personal Weather Stations






























Interactive Weather Map New forecast layout! Learn more

10-Day Weather Forecast

Advertisements
Track Severe Weather on mobile